createdAt,value
2023-03-29T00:00:14.648Z,43.1925
2023-03-29T00:01:35.051Z,43.1922
2023-03-29T00:02:17.918Z,43.1919
2023-03-29T00:03:19.729Z,43.1885
2023-03-29T00:04:21.226Z,43.1751
2023-03-29T00:05:22.853Z,43.1837
2023-03-29T00:06:24.532Z,43.1870
2023-03-29T00:07:26.183Z,43.2125
2023-03-29T00:08:27.836Z,43.2224
2023-03-29T00:09:29.484Z,43.2113
2023-03-29T00:10:31.120Z,43.1765
2023-03-29T00:11:32.800Z,43.1749
2023-03-29T00:12:34.428Z,43.2188
2023-03-29T00:13:36.128Z,43.2266
2023-03-29T00:14:37.734Z,43.2102
2023-03-29T00:15:39.405Z,43.1998
2023-03-29T00:16:41.071Z,43.1827
2023-03-29T00:17:42.767Z,43.2110
2023-03-29T00:18:44.385Z,43.2265
2023-03-29T00:19:46.023Z,43.2220
2023-03-29T00:20:47.666Z,43.2346
2023-03-29T00:21:49.322Z,43.2332
2023-03-29T00:22:50.967Z,43.2308
2023-03-29T00:23:52.670Z,43.2281
2023-03-29T00:24:54.319Z,43.2043
2023-03-29T00:25:55.957Z,43.2179
2023-03-29T00:26:57.610Z,43.2192
2023-03-29T00:27:59.268Z,43.2375
2023-03-29T00:29:00.943Z,43.2106
2023-03-29T00:30:02.570Z,43.2012
2023-03-29T00:31:04.430Z,43.2365
2023-03-29T00:32:05.877Z,43.2117
2023-03-29T00:33:07.554Z,43.1806
2023-03-29T00:34:09.199Z,43.2417
2023-03-29T00:35:10.825Z,43.2486
2023-03-29T00:36:12.497Z,43.2323
2023-03-29T00:37:14.112Z,43.2038
2023-03-29T00:38:15.798Z,43.2140
2023-03-29T00:39:17.449Z,43.2250
2023-03-29T00:40:19.099Z,43.2169
2023-03-29T00:41:20.734Z,43.2277
2023-03-29T00:42:22.407Z,43.2267
2023-03-29T00:43:24.041Z,43.2261
2023-03-29T00:44:25.744Z,43.2062
2023-03-29T00:45:27.354Z,43.2300
2023-03-29T00:46:29.108Z,43.2334
2023-03-29T00:47:30.671Z,43.2242
2023-03-29T00:48:32.383Z,43.2213
2023-03-29T00:49:33.994Z,43.2468
2023-03-29T00:50:35.647Z,43.2610
2023-03-29T00:51:37.291Z,43.2519
2023-03-29T00:52:38.950Z,43.2700
2023-03-29T00:53:40.580Z,43.2497
2023-03-29T00:54:42.294Z,43.2657
2023-03-29T00:55:43.895Z,43.2365
2023-03-29T00:56:45.578Z,43.2293
2023-03-29T00:57:47.200Z,43.2018
2023-03-29T00:58:48.871Z,43.1782
2023-03-29T00:59:50.579Z,43.2020
2023-03-29T01:00:52.206Z,43.2239
2023-03-29T01:01:53.871Z,43.2451
2023-03-29T01:02:55.538Z,43.2034
2023-03-29T01:03:57.154Z,43.2320
2023-03-29T01:04:58.817Z,43.2346
2023-03-29T01:06:00.462Z,43.2126
2023-03-29T01:07:02.159Z,43.1997
2023-03-29T01:08:03.757Z,43.2115
2023-03-29T01:09:05.419Z,43.2227
2023-03-29T01:10:07.085Z,43.2133
2023-03-29T01:11:08.735Z,43.2003
2023-03-29T01:12:10.388Z,43.2112
2023-03-29T01:13:12.043Z,43.1940
2023-03-29T01:14:13.684Z,43.2236
2023-03-29T01:15:15.398Z,43.2205
2023-03-29T01:16:17.094Z,43.2211
2023-03-29T01:17:18.683Z,43.2157
2023-03-29T01:18:20.307Z,43.2183
2023-03-29T01:19:21.977Z,43.2030
2023-03-29T01:20:23.635Z,43.2127
2023-03-29T01:21:25.285Z,43.2254
2023-03-29T01:22:26.931Z,43.2133
2023-03-29T01:23:28.599Z,43.2245
2023-03-29T01:24:30.225Z,43.2165
2023-03-29T01:25:31.918Z,43.2304
2023-03-29T01:26:33.540Z,43.2065
2023-03-29T01:27:35.208Z,43.1968
2023-03-29T01:28:36.847Z,43.1949
2023-03-29T01:29:38.507Z,43.1918
2023-03-29T01:30:40.173Z,43.1888
2023-03-29T01:31:41.902Z,43.2023
2023-03-29T01:32:43.450Z,43.1987
2023-03-29T01:33:45.142Z,43.2163
2023-03-29T01:34:46.802Z,43.2018
2023-03-29T01:35:48.521Z,43.1936
2023-03-29T01:36:50.073Z,43.2403
2023-03-29T01:37:51.760Z,43.3242
2023-03-29T01:38:53.401Z,43.3348
2023-03-29T01:39:55.061Z,43.2901
2023-03-29T01:40:56.722Z,43.2681
2023-03-29T01:41:58.367Z,43.2147
2023-03-29T01:43:00.024Z,43.2414
2023-03-29T01:44:01.692Z,43.2682
2023-03-29T01:45:03.325Z,43.4331
2023-03-29T01:46:05.454Z,44.4167
2023-03-29T01:47:06.630Z,44.6297
2023-03-29T01:48:08.303Z,45.5142
2023-03-29T01:49:09.950Z,44.8247
2023-03-29T01:50:11.620Z,44.9699
2023-03-29T01:51:13.316Z,45.2949
2023-03-29T01:52:14.941Z,45.3743
2023-03-29T01:53:16.572Z,45.4795
2023-03-29T01:54:18.245Z,45.6383
2023-03-29T01:55:19.879Z,45.8011
2023-03-29T01:56:21.571Z,45.2788
2023-03-29T01:57:23.276Z,45.6399
2023-03-29T01:58:24.861Z,45.7366
2023-03-29T01:59:26.500Z,45.4970
2023-03-29T02:00:28.152Z,45.0554
2023-03-29T02:01:29.841Z,45.0710
2023-03-29T02:02:31.560Z,45.1924
2023-03-29T02:03:33.199Z,45.3024
2023-03-29T02:04:34.796Z,45.2966
2023-03-29T02:05:36.409Z,45.3247
2023-03-29T02:06:38.100Z,45.3720
2023-03-29T02:07:39.713Z,45.2529
2023-03-29T02:08:41.386Z,45.1257
2023-03-29T02:09:43.022Z,45.0339
2023-03-29T02:10:44.692Z,44.8754
2023-03-29T02:11:46.353Z,45.0243
2023-03-29T02:12:48.001Z,45.1661
2023-03-29T02:13:49.641Z,45.0940
2023-03-29T02:14:51.304Z,45.2077
2023-03-29T02:15:53.117Z,45.4037
2023-03-29T02:16:54.633Z,45.4913
2023-03-29T02:17:56.262Z,45.3228
2023-03-29T02:18:57.933Z,45.3425
2023-03-29T02:19:59.549Z,45.1990
2023-03-29T02:21:01.441Z,44.8991
2023-03-29T02:22:02.892Z,44.8458
2023-03-29T02:23:04.537Z,44.7169
2023-03-29T02:24:06.156Z,44.7854
2023-03-29T02:25:07.841Z,44.8981
2023-03-29T02:26:09.460Z,44.8147
2023-03-29T02:27:11.178Z,44.8875
2023-03-29T02:28:12.781Z,44.8569
2023-03-29T02:29:14.446Z,44.7388
2023-03-29T02:30:16.083Z,44.7961
2023-03-29T02:31:17.788Z,44.8210
2023-03-29T02:32:19.405Z,44.6937
2023-03-29T02:33:21.048Z,44.6997
2023-03-29T02:34:22.756Z,44.7283
2023-03-29T02:35:24.359Z,44.7301
2023-03-29T02:36:25.987Z,44.7732
2023-03-29T02:37:27.686Z,44.7924
2023-03-29T02:38:29.303Z,44.7559
2023-03-29T02:39:30.972Z,44.6972
2023-03-29T02:40:32.609Z,44.7371
2023-03-29T02:41:34.262Z,44.6654
2023-03-29T02:42:35.949Z,44.6442
2023-03-29T02:43:37.572Z,44.7106
2023-03-29T02:44:39.278Z,44.6764
2023-03-29T02:45:40.936Z,44.7670
2023-03-29T02:46:42.691Z,44.7258
2023-03-29T02:47:44.364Z,44.6992
2023-03-29T02:48:45.887Z,44.7110
2023-03-29T02:49:50.343Z,44.6883
2023-03-29T02:50:49.215Z,44.6879
2023-03-29T02:51:50.844Z,44.6917
2023-03-29T02:52:52.562Z,44.6872
2023-03-29T02:53:54.148Z,44.6268
2023-03-29T02:54:55.829Z,44.6280
2023-03-29T02:55:57.449Z,44.6973
2023-03-29T02:56:59.160Z,44.6429
2023-03-29T02:58:00.780Z,44.6364
2023-03-29T02:59:02.433Z,44.6407
2023-03-29T03:00:04.075Z,44.6225
2023-03-29T03:01:05.730Z,44.6279
2023-03-29T03:02:07.435Z,44.6115
2023-03-29T03:03:09.214Z,44.6148
2023-03-29T03:04:10.749Z,44.6145
2023-03-29T03:05:12.352Z,44.6042
2023-03-29T03:06:14.931Z,44.6367
2023-03-29T03:07:15.663Z,44.6057
2023-03-29T03:08:17.304Z,44.6138
2023-03-29T03:09:18.949Z,44.5605
2023-03-29T03:10:20.601Z,44.5314
2023-03-29T03:11:22.260Z,44.5532
2023-03-29T03:12:23.902Z,44.5751
2023-03-29T03:13:25.590Z,44.5268
2023-03-29T03:14:27.209Z,44.5910
2023-03-29T03:15:28.875Z,44.5982
2023-03-29T03:16:30.588Z,44.6324
2023-03-29T03:17:32.195Z,44.5787
2023-03-29T03:18:33.998Z,44.5921
2023-03-29T03:19:35.485Z,44.6195
2023-03-29T03:20:37.095Z,44.5564
2023-03-29T03:21:38.786Z,44.5621
2023-03-29T03:22:40.420Z,44.5854
2023-03-29T03:23:42.123Z,44.5872
2023-03-29T03:24:43.704Z,44.5641
2023-03-29T03:25:45.366Z,44.5853
2023-03-29T03:26:47.016Z,44.5569
2023-03-29T03:27:48.691Z,44.5857
2023-03-29T03:28:50.351Z,44.5664
2023-03-29T03:29:51.982Z,44.5683
2023-03-29T03:30:53.640Z,44.6010
2023-03-29T03:31:55.310Z,44.5882
2023-03-29T03:32:56.953Z,44.5953
2023-03-29T03:33:58.594Z,44.5624
2023-03-29T03:35:00.216Z,44.5660
2023-03-29T03:36:01.983Z,44.5783
2023-03-29T03:37:03.522Z,44.5377
2023-03-29T03:38:05.195Z,44.5731
2023-03-29T03:39:06.841Z,44.5909
2023-03-29T03:40:08.495Z,44.5634
2023-03-29T03:41:10.133Z,44.5820
2023-03-29T03:42:11.804Z,44.6418
2023-03-29T03:43:13.434Z,44.6259
2023-03-29T03:44:15.134Z,44.6076
2023-03-29T03:45:16.745Z,44.5857
2023-03-29T03:46:18.500Z,44.6078
2023-03-29T03:47:20.046Z,44.6380
2023-03-29T03:48:21.726Z,44.6423
2023-03-29T03:49:23.408Z,44.6508
2023-03-29T03:50:25.024Z,44.6372
2023-03-29T03:51:26.666Z,44.6111
2023-03-29T03:52:28.336Z,44.6015
2023-03-29T03:53:29.973Z,44.6034
2023-03-29T03:54:31.664Z,44.6424
2023-03-29T03:55:33.309Z,44.6307
2023-03-29T03:56:34.964Z,44.6571
2023-03-29T03:57:36.584Z,44.6573
2023-03-29T03:58:38.254Z,44.6442
2023-03-29T03:59:39.919Z,44.6350
2023-03-29T04:00:41.563Z,44.6294
2023-03-29T04:01:43.208Z,44.6392
2023-03-29T04:02:44.904Z,44.6755
2023-03-29T04:03:46.543Z,44.6650
2023-03-29T04:04:48.188Z,44.6903
2023-03-29T04:05:49.812Z,44.6498
2023-03-29T04:06:51.497Z,44.6746
2023-03-29T04:07:53.121Z,44.6492
2023-03-29T04:08:54.792Z,44.6576
2023-03-29T04:09:56.462Z,44.6148
2023-03-29T04:10:58.107Z,44.6176
2023-03-29T04:11:59.745Z,44.6523
2023-03-29T04:13:01.462Z,44.6482
2023-03-29T04:14:03.056Z,44.6560
2023-03-29T04:15:04.748Z,44.6836
2023-03-29T04:16:06.392Z,44.6532
2023-03-29T04:17:08.052Z,44.6701
2023-03-29T04:18:09.757Z,44.7016
2023-03-29T04:19:11.349Z,44.6923
2023-03-29T04:20:13.015Z,44.6764
2023-03-29T04:21:14.648Z,44.6627
2023-03-29T04:22:16.284Z,44.6635
2023-03-29T04:23:17.975Z,44.6844
2023-03-29T04:24:19.604Z,44.6563
2023-03-29T04:25:21.294Z,44.6648
2023-03-29T04:26:22.915Z,44.6730
2023-03-29T04:27:24.565Z,44.6580
2023-03-29T04:28:26.253Z,44.6568
2023-03-29T04:29:27.853Z,44.6558
2023-03-29T04:30:29.546Z,44.6510
2023-03-29T04:31:31.272Z,44.6750
2023-03-29T04:32:32.855Z,44.7043
2023-03-29T04:33:34.472Z,44.6397
2023-03-29T04:34:36.140Z,44.7004
2023-03-29T04:35:37.851Z,44.7078
2023-03-29T04:36:39.453Z,44.7244
2023-03-29T04:37:41.078Z,44.7515
2023-03-29T04:38:46.097Z,44.7239
2023-03-29T04:39:44.380Z,44.7481
2023-03-29T04:40:46.072Z,44.7327
2023-03-29T04:41:47.687Z,44.6942
2023-03-29T04:42:49.365Z,44.6965
2023-03-29T04:43:51.000Z,44.7345
2023-03-29T04:44:52.698Z,44.4729
2023-03-29T04:45:54.379Z,38.0473
2023-03-29T04:46:55.992Z,34.6935
2023-03-29T04:47:57.663Z,33.7701
2023-03-29T04:48:59.317Z,33.0872
2023-03-29T04:50:00.912Z,32.9546
2023-03-29T04:51:02.777Z,33.5964
2023-03-29T04:52:04.226Z,34.7473
2023-03-29T04:53:05.896Z,35.0764
2023-03-29T04:54:07.530Z,35.2580
2023-03-29T04:55:09.232Z,35.8083
2023-03-29T04:56:10.858Z,36.3295
2023-03-29T04:57:12.559Z,37.2014
2023-03-29T04:58:14.121Z,38.0884
2023-03-29T04:59:15.795Z,39.5680
2023-03-29T05:00:17.463Z,40.6885
2023-03-29T05:01:19.171Z,40.1076
2023-03-29T05:02:20.736Z,40.1192
2023-03-29T05:03:22.418Z,39.7134
2023-03-29T05:04:24.065Z,39.5289
2023-03-29T05:05:25.732Z,40.0730
2023-03-29T05:06:27.376Z,40.3621
2023-03-29T05:07:29.085Z,40.4216
2023-03-29T05:08:30.664Z,40.7133
2023-03-29T05:09:35.037Z,41.9058
2023-03-29T05:10:33.977Z,41.6151
2023-03-29T05:11:35.678Z,41.6644
2023-03-29T05:12:37.285Z,41.6004
2023-03-29T05:13:38.937Z,41.4177
2023-03-29T05:14:40.589Z,41.9603
2023-03-29T05:15:42.267Z,42.2685
2023-03-29T05:16:43.999Z,42.8605
2023-03-29T05:17:45.576Z,43.5158
2023-03-29T05:18:47.214Z,43.5470
2023-03-29T05:19:48.883Z,43.4535
2023-03-29T05:20:50.535Z,43.8575
2023-03-29T05:21:52.219Z,43.9067
2023-03-29T05:22:53.858Z,44.0055
2023-03-29T05:23:55.503Z,43.9263
2023-03-29T05:24:57.135Z,43.2123
2023-03-29T05:25:58.808Z,43.0408
2023-03-29T05:27:00.468Z,42.9575
2023-03-29T05:28:02.112Z,43.6988
2023-03-29T05:29:03.749Z,44.2016
2023-03-29T05:30:05.422Z,44.4736
2023-03-29T05:31:07.068Z,44.5546
2023-03-29T05:32:08.857Z,44.5970
2023-03-29T05:33:10.405Z,44.7523
2023-03-29T05:34:12.032Z,44.6859
2023-03-29T05:35:13.661Z,44.7205
2023-03-29T05:36:15.408Z,44.8914
2023-03-29T05:37:17.024Z,44.6491
2023-03-29T05:38:18.648Z,45.0638
2023-03-29T05:39:20.283Z,45.0586
2023-03-29T05:40:21.966Z,44.5482
2023-03-29T05:41:23.622Z,43.9137
2023-03-29T05:42:25.283Z,44.1161
2023-03-29T05:43:26.898Z,44.1265
2023-03-29T05:44:28.581Z,44.1519
2023-03-29T05:45:30.276Z,43.6987
2023-03-29T05:46:31.896Z,43.2359
2023-03-29T05:47:33.637Z,42.8136
2023-03-29T05:48:35.303Z,43.1656
2023-03-29T05:49:36.852Z,43.3887
2023-03-29T05:50:38.476Z,43.7093
2023-03-29T05:51:40.145Z,43.8494
2023-03-29T05:52:41.810Z,43.7337
2023-03-29T05:53:43.466Z,43.9571
2023-03-29T05:54:45.135Z,44.0583
2023-03-29T05:55:46.782Z,44.0776
2023-03-29T05:56:48.456Z,44.0638
2023-03-29T05:57:50.106Z,44.2340
2023-03-29T05:58:53.657Z,44.3935
2023-03-29T05:59:53.411Z,44.2979
2023-03-29T06:00:55.010Z,44.4752
2023-03-29T06:01:56.734Z,44.6025
2023-03-29T06:03:03.780Z,44.6066
2023-03-29T06:04:00.102Z,44.5815
2023-03-29T06:05:01.657Z,44.5366
2023-03-29T06:06:03.310Z,44.8627
2023-03-29T06:07:04.934Z,44.5838
2023-03-29T06:08:06.631Z,44.8522
2023-03-29T06:09:08.250Z,44.9855
2023-03-29T06:10:09.918Z,44.2222
2023-03-29T06:11:11.543Z,37.3787
2023-03-29T06:12:13.216Z,35.4652
2023-03-29T06:13:14.878Z,35.3117
2023-03-29T06:14:16.516Z,34.9852
2023-03-29T06:15:18.156Z,34.5611
2023-03-29T06:16:19.839Z,34.5536
2023-03-29T06:17:21.457Z,34.5863
2023-03-29T06:18:23.180Z,35.1995
2023-03-29T06:19:24.764Z,36.2548
2023-03-29T06:20:26.447Z,37.3366
2023-03-29T06:21:28.063Z,36.7964
2023-03-29T06:22:29.754Z,36.8626
2023-03-29T06:23:31.411Z,37.0809
2023-03-29T06:24:33.044Z,37.0101
2023-03-29T06:25:34.699Z,37.4941
2023-03-29T06:26:36.349Z,37.1422
2023-03-29T06:27:38.008Z,37.4410
2023-03-29T06:28:39.702Z,37.8093
2023-03-29T06:29:41.298Z,38.0382
2023-03-29T06:30:42.962Z,38.1759
2023-03-29T06:31:44.668Z,38.1705
2023-03-29T06:32:46.332Z,38.4219
2023-03-29T06:33:47.931Z,38.8955
2023-03-29T06:34:49.600Z,39.4315
2023-03-29T06:35:51.305Z,39.7930
2023-03-29T06:36:52.888Z,40.0139
2023-03-29T06:37:54.562Z,40.2012
2023-03-29T06:38:56.240Z,40.3531
2023-03-29T06:39:57.841Z,40.2785
2023-03-29T06:40:59.610Z,40.1274
2023-03-29T06:42:10.057Z,40.1147
2023-03-29T06:43:02.804Z,39.9773
2023-03-29T06:44:04.450Z,40.0957
2023-03-29T06:45:06.138Z,40.0917
2023-03-29T06:46:07.790Z,40.1764
2023-03-29T06:47:09.528Z,40.2101
2023-03-29T06:48:11.171Z,40.2104
2023-03-29T06:49:12.869Z,40.0186
2023-03-29T06:50:14.445Z,40.0540
2023-03-29T06:51:16.118Z,40.0323
2023-03-29T06:52:17.744Z,40.2037
2023-03-29T06:53:19.415Z,40.1062
2023-03-29T06:54:21.142Z,40.1253
2023-03-29T06:55:22.721Z,40.4044
2023-03-29T06:56:24.370Z,40.9898
2023-03-29T06:57:26.177Z,41.5286
2023-03-29T06:58:27.662Z,41.3159
2023-03-29T06:59:29.368Z,41.0385
2023-03-29T07:00:30.988Z,41.2743
2023-03-29T07:01:32.651Z,41.4891
2023-03-29T07:02:34.285Z,41.5676
2023-03-29T07:03:35.959Z,41.5205
2023-03-29T07:04:37.670Z,41.6187
2023-03-29T07:05:39.311Z,41.7510
2023-03-29T07:06:40.889Z,41.7036
2023-03-29T07:07:42.559Z,41.7589
2023-03-29T07:08:44.202Z,41.7682
2023-03-29T07:09:45.880Z,41.7902
2023-03-29T07:10:47.602Z,41.8382
2023-03-29T07:11:49.168Z,41.7579
2023-03-29T07:12:50.796Z,41.7250
2023-03-29T07:13:52.490Z,41.7829
2023-03-29T07:14:54.147Z,41.7792
2023-03-29T07:15:55.838Z,41.7996
2023-03-29T07:16:57.445Z,41.9252
2023-03-29T07:17:59.181Z,41.8701
2023-03-29T07:19:00.738Z,41.9216
2023-03-29T07:20:02.499Z,42.0257
2023-03-29T07:21:04.154Z,42.0916
2023-03-29T07:22:05.708Z,42.1112
2023-03-29T07:23:07.370Z,41.9760
2023-03-29T07:24:09.007Z,41.9218
2023-03-29T07:25:10.693Z,42.0477
2023-03-29T07:26:12.323Z,42.3385
2023-03-29T07:27:13.977Z,42.3133
2023-03-29T07:28:15.670Z,42.0868
2023-03-29T07:29:17.288Z,42.0859
2023-03-29T07:30:18.942Z,42.1968
2023-03-29T07:31:20.558Z,42.4178
2023-03-29T07:32:22.497Z,42.6176
2023-03-29T07:33:23.998Z,42.7766
2023-03-29T07:34:25.540Z,42.8021
2023-03-29T07:35:27.189Z,42.7634
2023-03-29T07:36:28.870Z,42.6565
2023-03-29T07:37:30.493Z,42.7314
2023-03-29T07:38:32.179Z,42.7935
2023-03-29T07:39:33.797Z,42.7836
2023-03-29T07:40:35.476Z,42.8407
2023-03-29T07:41:37.099Z,42.9710
2023-03-29T07:42:38.792Z,43.0953
2023-03-29T07:43:40.422Z,43.1014
2023-03-29T07:44:42.097Z,43.1020
2023-03-29T07:45:43.743Z,43.1870
2023-03-29T07:46:45.412Z,43.2967
2023-03-29T07:47:47.032Z,43.2763
2023-03-29T07:48:48.696Z,43.2576
2023-03-29T07:49:50.330Z,43.2967
2023-03-29T07:50:52.048Z,43.2699
2023-03-29T07:51:53.635Z,43.1725
2023-03-29T07:52:55.286Z,43.1040
2023-03-29T07:53:56.958Z,43.0892
2023-03-29T07:54:58.589Z,43.1537
2023-03-29T07:56:00.270Z,43.3108
2023-03-29T07:57:01.978Z,43.3803
2023-03-29T07:58:03.548Z,43.4180
2023-03-29T07:59:05.221Z,43.4363
2023-03-29T08:00:06.856Z,43.5057
2023-03-29T08:01:08.639Z,43.5501
2023-03-29T08:02:10.161Z,43.5349
2023-03-29T08:03:11.895Z,43.4488
2023-03-29T08:04:13.534Z,43.4564
2023-03-29T08:05:17.476Z,43.4426
2023-03-29T08:06:16.838Z,43.3896
2023-03-29T08:07:18.967Z,43.3866
2023-03-29T08:08:20.078Z,43.2708
2023-03-29T08:09:21.766Z,43.2654
2023-03-29T08:10:23.384Z,43.3395
2023-03-29T08:11:25.074Z,43.2794
2023-03-29T08:12:26.700Z,43.2803
2023-03-29T08:13:28.362Z,43.3173
2023-03-29T08:14:30.009Z,43.4761
2023-03-29T08:15:31.667Z,43.4706
2023-03-29T08:16:33.406Z,43.5446
2023-03-29T08:17:35.082Z,43.5565
2023-03-29T08:18:36.737Z,43.5742
2023-03-29T08:19:38.290Z,43.5385
2023-03-29T08:20:39.919Z,43.4681
2023-03-29T08:21:41.619Z,43.5959
2023-03-29T08:22:43.228Z,43.6455
2023-03-29T08:23:44.918Z,43.6221
2023-03-29T08:24:46.547Z,43.6741
2023-03-29T08:25:48.247Z,43.6832
2023-03-29T08:26:49.883Z,43.5836
2023-03-29T08:27:51.520Z,43.5793
2023-03-29T08:28:53.157Z,43.7153
2023-03-29T08:29:54.836Z,43.6662
2023-03-29T08:30:56.485Z,43.6993
2023-03-29T08:31:58.159Z,43.7359
2023-03-29T08:32:59.787Z,43.8244
2023-03-29T08:34:01.437Z,43.8294
2023-03-29T08:35:03.078Z,43.8104
2023-03-29T08:36:04.780Z,43.8861
2023-03-29T08:37:06.414Z,43.8387
2023-03-29T08:38:08.067Z,43.8521
2023-03-29T08:39:09.686Z,43.8099
2023-03-29T08:40:11.363Z,43.7200
2023-03-29T08:41:13.000Z,44.0399
2023-03-29T08:42:14.689Z,44.1600
2023-03-29T08:43:16.287Z,44.1265
2023-03-29T08:44:17.974Z,42.2970
2023-03-29T08:45:19.646Z,41.0646
2023-03-29T08:46:21.346Z,43.7352
2023-03-29T08:47:22.933Z,43.9774
2023-03-29T08:48:24.573Z,44.0701
2023-03-29T08:49:26.251Z,44.1840
2023-03-29T08:50:27.888Z,44.2181
2023-03-29T08:51:29.532Z,44.1884
2023-03-29T08:52:31.290Z,44.0323
2023-03-29T08:53:32.858Z,44.0492
2023-03-29T08:54:34.517Z,44.0415
2023-03-29T08:55:36.145Z,44.1125
2023-03-29T08:56:37.835Z,44.2555
2023-03-29T08:57:39.559Z,44.4420
2023-03-29T08:58:41.134Z,44.4489
2023-03-29T08:59:42.743Z,44.4495
2023-03-29T09:00:44.431Z,44.4676
2023-03-29T09:01:48.447Z,44.4309
2023-03-29T09:02:47.829Z,44.3349
2023-03-29T09:03:49.473Z,44.2757
2023-03-29T09:04:51.013Z,44.2241
2023-03-29T09:05:52.649Z,44.2785
2023-03-29T09:06:54.339Z,44.3091
2023-03-29T09:07:55.976Z,44.3299
2023-03-29T09:08:57.633Z,44.3626
2023-03-29T09:09:59.263Z,44.4818
2023-03-29T09:11:01.091Z,44.4808
2023-03-29T09:12:02.570Z,44.4107
2023-03-29T09:13:04.299Z,44.3812
2023-03-29T09:14:05.879Z,44.5426
2023-03-29T09:15:07.549Z,44.5816
2023-03-29T09:16:09.173Z,44.6159
2023-03-29T09:17:10.868Z,44.6137
2023-03-29T09:18:12.556Z,44.6405
2023-03-29T09:19:14.172Z,44.7041
2023-03-29T09:20:15.802Z,44.6872
2023-03-29T09:21:17.462Z,44.6157
2023-03-29T09:22:20.078Z,44.7157
2023-03-29T09:23:20.793Z,44.7799
2023-03-29T09:24:22.423Z,44.8134
2023-03-29T09:25:24.097Z,44.8794
2023-03-29T09:26:25.740Z,44.9813
2023-03-29T09:27:27.393Z,45.0260
2023-03-29T09:28:29.049Z,45.0425
2023-03-29T09:29:30.703Z,45.0616
2023-03-29T09:30:32.360Z,45.0720
2023-03-29T09:31:34.042Z,45.0257
2023-03-29T09:32:35.706Z,44.9972
2023-03-29T09:33:37.406Z,45.0555
2023-03-29T09:34:38.970Z,45.0225
2023-03-29T09:35:40.640Z,44.9886
2023-03-29T09:36:42.269Z,44.9623
2023-03-29T09:37:43.934Z,44.9628
2023-03-29T09:38:45.604Z,45.0320
2023-03-29T09:39:47.267Z,45.0160
2023-03-29T09:40:48.900Z,44.9890
2023-03-29T09:41:50.545Z,44.9749
2023-03-29T09:42:52.331Z,44.9882
2023-03-29T09:43:53.896Z,44.9153
2023-03-29T09:44:55.489Z,44.9385
2023-03-29T09:45:57.238Z,44.9104
2023-03-29T09:46:58.857Z,44.8604
2023-03-29T09:48:00.572Z,44.8475
2023-03-29T09:49:02.169Z,44.8311
2023-03-29T09:50:03.799Z,44.8249
2023-03-29T09:51:05.431Z,44.7942
2023-03-29T09:52:07.075Z,44.8037
2023-03-29T09:53:08.726Z,44.8504
2023-03-29T09:54:10.436Z,44.8385
2023-03-29T09:55:12.030Z,44.8891
2023-03-29T09:56:13.699Z,44.8918
2023-03-29T09:57:15.415Z,44.8423
2023-03-29T09:58:17.026Z,44.9112
2023-03-29T09:59:18.691Z,44.8912
2023-03-29T10:00:20.313Z,44.9065
2023-03-29T10:01:21.949Z,44.9467
2023-03-29T10:02:23.628Z,44.9460
2023-03-29T10:03:25.241Z,45.1060
2023-03-29T10:04:26.992Z,45.2011
2023-03-29T10:05:28.548Z,45.2751
2023-03-29T10:06:30.215Z,45.3127
2023-03-29T10:07:31.852Z,45.5099
2023-03-29T10:08:33.578Z,45.5639
2023-03-29T10:09:35.200Z,45.6196
2023-03-29T10:10:36.889Z,45.7984
2023-03-29T10:11:38.498Z,45.8831
2023-03-29T10:12:40.138Z,45.7538
2023-03-29T10:13:41.777Z,45.5771
2023-03-29T10:14:43.468Z,45.5447
2023-03-29T10:15:45.103Z,45.7174
2023-03-29T10:16:46.874Z,45.7477
2023-03-29T10:17:48.467Z,45.7863
2023-03-29T10:18:50.061Z,45.8201
2023-03-29T10:19:51.741Z,46.0933
2023-03-29T10:20:53.384Z,46.1340
2023-03-29T10:21:55.023Z,46.0793
2023-03-29T10:22:56.674Z,45.9811
2023-03-29T10:23:58.304Z,46.0667
2023-03-29T10:25:00.031Z,46.0420
2023-03-29T10:26:01.625Z,45.9153
2023-03-29T10:27:03.290Z,45.8425
2023-03-29T10:28:04.935Z,46.1930
2023-03-29T10:29:06.594Z,47.2721
2023-03-29T10:30:08.253Z,48.0944
2023-03-29T10:31:09.928Z,47.7958
2023-03-29T10:32:11.574Z,47.3635
2023-03-29T10:33:13.219Z,47.0597
2023-03-29T10:34:14.830Z,47.0297
2023-03-29T10:35:16.536Z,48.2613
2023-03-29T10:36:18.156Z,48.5061
2023-03-29T10:37:19.818Z,48.1242
2023-03-29T10:38:21.486Z,47.6269
2023-03-29T10:39:23.112Z,47.3670
2023-03-29T10:40:24.787Z,48.4820
2023-03-29T10:41:26.414Z,49.5781
2023-03-29T10:42:28.047Z,49.2988
2023-03-29T10:43:29.799Z,48.6750
2023-03-29T10:44:33.174Z,48.0817
2023-03-29T10:45:33.073Z,47.9334
2023-03-29T10:46:34.789Z,47.7833
2023-03-29T10:47:36.361Z,41.3141
2023-03-29T10:48:38.023Z,39.8722
2023-03-29T10:49:39.656Z,45.4804
2023-03-29T10:50:41.367Z,46.8574
2023-03-29T10:51:43.018Z,48.1105
2023-03-29T10:52:44.650Z,49.5652
2023-03-29T10:53:46.325Z,48.8757
2023-03-29T10:54:47.956Z,47.9770
2023-03-29T10:55:49.657Z,47.7216
2023-03-29T10:56:52.558Z,47.7737
2023-03-29T10:57:52.925Z,47.4856
2023-03-29T10:58:54.574Z,47.9727
2023-03-29T10:59:56.218Z,47.5962
2023-03-29T11:00:57.875Z,47.8811
2023-03-29T11:01:59.561Z,48.5607
2023-03-29T11:03:01.217Z,48.4100
2023-03-29T11:04:02.909Z,48.8552
2023-03-29T11:05:04.441Z,50.6161
2023-03-29T11:06:06.141Z,51.2236
2023-03-29T11:07:07.751Z,49.9503
2023-03-29T11:08:09.439Z,49.6690
2023-03-29T11:09:11.054Z,50.7028
2023-03-29T11:10:12.738Z,49.8789
2023-03-29T11:11:14.406Z,49.3502
2023-03-29T11:12:16.659Z,49.3929
2023-03-29T11:13:17.694Z,49.5606
2023-03-29T11:14:19.331Z,49.6111
2023-03-29T11:15:20.950Z,49.5197
2023-03-29T11:16:22.906Z,49.9006
2023-03-29T11:17:24.275Z,49.6243
2023-03-29T11:18:25.929Z,49.4859
2023-03-29T11:19:27.574Z,49.3289
2023-03-29T11:20:29.241Z,49.0484
2023-03-29T11:21:30.897Z,48.8147
2023-03-29T11:22:32.560Z,48.6403
2023-03-29T11:23:34.196Z,48.5727
2023-03-29T11:24:35.875Z,48.5019
2023-03-29T11:25:37.478Z,48.5011
2023-03-29T11:26:39.203Z,48.4924
2023-03-29T11:27:40.787Z,48.5360
2023-03-29T11:28:42.468Z,48.5435
2023-03-29T11:29:44.126Z,48.4862
2023-03-29T11:30:45.798Z,48.4933
2023-03-29T11:31:47.508Z,48.5075
2023-03-29T11:32:49.086Z,48.5159
2023-03-29T11:33:50.713Z,48.5119
2023-03-29T11:34:52.384Z,48.5081
2023-03-29T11:35:54.064Z,48.5287
2023-03-29T11:36:55.727Z,48.4958
2023-03-29T11:37:57.313Z,48.4911
2023-03-29T11:38:58.968Z,48.4795
2023-03-29T11:40:00.611Z,48.4756
2023-03-29T11:41:02.596Z,48.4666
2023-03-29T11:42:03.935Z,48.4740
2023-03-29T11:43:05.576Z,48.5090
2023-03-29T11:44:07.236Z,48.4944
2023-03-29T11:45:08.874Z,48.5182
2023-03-29T11:46:10.523Z,48.5550
2023-03-29T11:47:12.233Z,48.5595
2023-03-29T11:48:13.821Z,48.5834
2023-03-29T11:49:15.489Z,48.6066
2023-03-29T11:50:17.142Z,48.6187
2023-03-29T11:51:18.791Z,49.2263
2023-03-29T11:52:20.468Z,50.1339
2023-03-29T11:53:22.080Z,50.6410
2023-03-29T11:54:23.758Z,50.8992
2023-03-29T11:55:25.398Z,51.3765
2023-03-29T11:56:27.042Z,52.1228
2023-03-29T11:57:28.861Z,52.0069
2023-03-29T11:58:30.344Z,51.6921
2023-03-29T11:59:31.992Z,51.0810
2023-03-29T12:00:33.659Z,50.9287
2023-03-29T12:01:35.299Z,50.4815
2023-03-29T12:02:37.105Z,51.2195
2023-03-29T12:03:38.797Z,49.6104
2023-03-29T12:04:40.297Z,43.3010
2023-03-29T12:05:41.894Z,40.4642
2023-03-29T12:06:43.578Z,39.0716
2023-03-29T12:07:45.237Z,38.7654
2023-03-29T12:08:46.900Z,38.0012
2023-03-29T12:09:48.516Z,37.8793
2023-03-29T12:10:50.192Z,37.7871
2023-03-29T12:11:51.827Z,38.6012
2023-03-29T12:12:53.548Z,37.8715
2023-03-29T12:13:55.148Z,37.7727
2023-03-29T12:14:57.125Z,37.3399
2023-03-29T12:15:58.454Z,36.8114
2023-03-29T12:17:00.158Z,37.6899
2023-03-29T12:18:01.801Z,37.5838
2023-03-29T12:19:03.411Z,37.6770
2023-03-29T12:20:05.077Z,36.9296
2023-03-29T12:21:06.877Z,36.6900
2023-03-29T12:22:08.363Z,36.2810
2023-03-29T12:23:10.071Z,36.6723
2023-03-29T12:24:11.688Z,36.4075
2023-03-29T12:25:14.312Z,36.8755